createdAt,value
2023-03-15T00:00:00.055Z,8.82
2023-03-15T00:02:27.118Z,11.25
2023-03-15T00:04:55.000Z,9.68
2023-03-15T00:07:26.037Z,7.35
2023-03-15T00:09:55.348Z,10.18
2023-03-15T00:12:23.428Z,10.60
2023-03-15T00:14:51.909Z,9.10
2023-03-15T00:17:23.420Z,8.48
2023-03-15T00:19:54.266Z,7.32
2023-03-15T00:22:23.393Z,8.10
2023-03-15T00:24:52.181Z,8.45
2023-03-15T00:27:19.375Z,7.18
2023-03-15T00:29:48.890Z,7.95
2023-03-15T00:32:16.024Z,8.45
2023-03-15T00:34:49.323Z,8.05
2023-03-15T00:37:17.290Z,8.60
2023-03-15T00:39:47.195Z,8.52
2023-03-15T00:42:26.417Z,8.85
2023-03-15T00:44:55.729Z,7.90
2023-03-15T00:47:23.407Z,8.23
2023-03-15T00:49:51.063Z,7.90
2023-03-15T00:52:19.219Z,9.40
2023-03-15T00:54:55.165Z,7.60
2023-03-15T00:57:22.571Z,3.63
2023-03-15T00:59:50.156Z,5.68
2023-03-15T01:02:17.296Z,5.63
2023-03-15T01:04:44.992Z,4.65
2023-03-15T01:07:12.503Z,5.88
2023-03-15T01:09:41.061Z,7.45
2023-03-15T01:12:09.222Z,6.22
2023-03-15T01:14:39.299Z,6.03
2023-03-15T01:17:06.410Z,6.25
2023-03-15T01:19:34.324Z,6.57
2023-03-15T01:22:01.291Z,6.45
2023-03-15T01:24:29.043Z,5.50
2023-03-15T01:26:55.979Z,6.90
2023-03-15T01:29:23.378Z,7.07
2023-03-15T01:31:50.631Z,6.85
2023-03-15T01:34:18.314Z,7.43
2023-03-15T01:36:45.364Z,5.45
2023-03-15T01:39:12.897Z,8.60
2023-03-15T01:41:39.913Z,7.65
2023-03-15T01:44:16.343Z,7.60
2023-03-15T01:46:45.712Z,7.57
2023-03-15T01:52:30.519Z,4.15
2023-03-15T01:55:04.332Z,5.68
2023-03-15T01:57:40.273Z,7.25
2023-03-15T02:00:14.481Z,5.60
2023-03-15T02:02:48.073Z,5.65
2023-03-15T02:05:22.847Z,7.43
2023-03-15T02:07:51.037Z,4.00
2023-03-15T02:11:01.757Z,5.00
2023-03-15T02:13:30.574Z,6.38
2023-03-15T02:15:58.262Z,7.45
2023-03-15T02:18:25.391Z,7.57
2023-03-15T02:21:11.568Z,8.30
2023-03-15T02:23:38.676Z,7.75
2023-03-15T02:26:18.215Z,8.13
2023-03-15T02:28:46.355Z,7.82
2023-03-15T02:31:15.345Z,7.55
2023-03-15T02:33:55.891Z,4.68
2023-03-15T02:36:26.502Z,5.63
2023-03-15T02:38:55.320Z,6.40
2023-03-15T02:41:42.631Z,6.40
2023-03-15T02:44:15.833Z,5.65
2023-03-15T02:46:46.308Z,9.30
2023-03-15T02:49:17.219Z,8.30
2023-03-15T02:51:44.818Z,8.23
2023-03-15T02:54:11.900Z,9.10
2023-03-15T02:56:40.234Z,8.95
2023-03-15T02:59:07.417Z,6.68
2023-03-15T03:01:37.355Z,6.78
2023-03-15T03:04:04.859Z,7.18
2023-03-15T03:06:32.666Z,7.60
2023-03-15T03:08:59.826Z,7.75
2023-03-15T03:11:27.273Z,6.47
2023-03-15T03:13:55.480Z,6.72
2023-03-15T03:16:23.679Z,6.50
2023-03-15T03:18:51.577Z,5.85
2023-03-15T03:21:19.464Z,6.22
2023-03-15T03:23:46.897Z,5.07
2023-03-15T03:26:17.002Z,5.43
2023-03-15T03:28:46.595Z,5.47
2023-03-15T03:31:40.025Z,6.25
2023-03-15T03:34:09.572Z,5.85
2023-03-15T03:36:37.132Z,5.40
2023-03-15T03:39:05.057Z,5.10
2023-03-15T03:41:32.456Z,5.70
2023-03-15T03:44:01.518Z,5.78
2023-03-15T03:48:56.186Z,4.90
2023-03-15T03:51:23.820Z,4.55
2023-03-15T03:53:50.839Z,5.53
2023-03-15T03:56:18.272Z,5.95
2023-03-15T03:58:45.236Z,5.65
2023-03-15T04:01:13.695Z,5.93
2023-03-15T04:03:42.047Z,6.05
2023-03-15T04:08:54.661Z,6.53
2023-03-15T04:11:22.229Z,6.18
2023-03-15T04:13:49.459Z,6.57
2023-03-15T04:16:18.252Z,5.07
2023-03-15T04:18:46.933Z,6.07
2023-03-15T04:21:23.191Z,6.07
2023-03-15T04:26:17.827Z,4.70
2023-03-15T04:28:44.845Z,5.13
2023-03-15T04:31:14.948Z,5.18
2023-03-15T04:33:42.071Z,4.43
2023-03-15T04:36:09.869Z,5.50
2023-03-15T04:38:37.010Z,5.07
2023-03-15T04:41:11.196Z,4.90
2023-03-15T04:43:38.489Z,5.35
2023-03-15T04:46:09.281Z,6.07
2023-03-15T04:48:37.454Z,5.38
2023-03-15T04:51:05.054Z,6.40
2023-03-15T04:53:32.421Z,6.70
2023-03-15T04:56:00.524Z,5.35
2023-03-15T04:58:27.925Z,6.30
2023-03-15T05:00:55.455Z,5.65
2023-03-15T05:03:23.717Z,6.93
2023-03-15T05:06:10.274Z,5.82
2023-03-15T05:08:38.024Z,5.72
2023-03-15T05:11:06.803Z,6.03
2023-03-15T05:13:35.324Z,5.10
2023-03-15T05:16:04.953Z,4.65
2023-03-15T05:18:37.529Z,5.97
2023-03-15T05:21:06.945Z,5.18
2023-03-15T05:26:16.497Z,5.85
2023-03-15T05:28:45.467Z,5.40
2023-03-15T05:31:12.559Z,5.32
2023-03-15T05:33:47.023Z,5.72
2023-03-15T05:36:15.508Z,6.13
2023-03-15T05:38:45.487Z,5.53
2023-03-15T05:41:18.351Z,4.95
2023-03-15T05:43:45.837Z,4.80
2023-03-15T05:46:22.385Z,5.25
2023-03-15T05:48:49.837Z,5.32
2023-03-15T05:51:18.115Z,4.47
2023-03-15T05:53:51.074Z,4.88
2023-03-15T05:56:18.172Z,5.43
2023-03-15T05:58:54.258Z,4.53
2023-03-15T06:01:21.416Z,5.32
2023-03-15T06:03:48.962Z,5.72
2023-03-15T06:06:16.317Z,5.22
2023-03-15T06:08:43.705Z,4.35
2023-03-15T06:11:10.866Z,5.50
2023-03-15T06:13:38.218Z,4.07
2023-03-15T06:16:05.619Z,3.20
2023-03-15T06:18:33.363Z,4.97
2023-03-15T06:21:00.324Z,5.13
2023-03-15T06:23:27.975Z,4.75
2023-03-15T06:25:58.369Z,5.13
2023-03-15T06:28:26.148Z,4.82
2023-03-15T06:30:53.363Z,4.78
2023-03-15T06:33:21.635Z,5.10
2023-03-15T06:35:48.647Z,4.90
2023-03-15T06:38:16.258Z,4.63
2023-03-15T06:40:43.873Z,3.50
2023-03-15T06:43:18.385Z,3.13
2023-03-15T06:45:48.202Z,7.60
2023-03-15T06:48:15.598Z,3.65
2023-03-15T06:50:47.417Z,3.45
2023-03-15T06:53:16.985Z,3.85
2023-03-15T06:55:45.141Z,4.05
2023-03-15T06:58:13.536Z,4.00
2023-03-15T07:03:23.921Z,3.30
2023-03-15T07:05:54.821Z,3.28
2023-03-15T07:11:07.759Z,3.80
2023-03-15T07:13:35.960Z,2.88
2023-03-15T07:16:03.253Z,3.22
2023-03-15T07:18:34.824Z,2.90
2023-03-15T07:21:03.955Z,2.65
2023-03-15T07:23:33.165Z,3.15
2023-03-15T07:26:00.836Z,2.08
2023-03-15T07:28:29.913Z,1.90
2023-03-15T07:30:59.133Z,2.22
2023-03-15T07:33:28.068Z,2.22
2023-03-15T07:38:54.526Z,2.53
2023-03-15T07:41:22.485Z,2.25
2023-03-15T07:43:49.897Z,1.67
2023-03-15T07:46:17.843Z,1.85
2023-03-15T07:48:44.936Z,1.73
2023-03-15T07:51:12.371Z,2.00
2023-03-15T07:53:39.459Z,1.83
2023-03-15T07:56:11.818Z,1.88
2023-03-15T07:58:38.966Z,1.63
2023-03-15T08:01:07.608Z,1.55
2023-03-15T08:03:35.508Z,1.98
2023-03-15T08:06:04.443Z,1.70
2023-03-15T08:08:31.665Z,1.83
2023-03-15T08:10:59.907Z,1.63
2023-03-15T08:13:27.739Z,1.63
2023-03-15T08:15:57.662Z,1.92
2023-03-15T08:18:25.450Z,1.50
2023-03-15T08:20:56.800Z,1.38
2023-03-15T08:23:25.145Z,1.60
2023-03-15T08:25:56.111Z,1.50
2023-03-15T08:28:25.021Z,2.42
2023-03-15T08:30:53.890Z,1.80
2023-03-15T08:33:22.459Z,2.30
2023-03-15T08:35:55.774Z,2.20
2023-03-15T08:38:25.963Z,1.85
2023-03-15T08:41:00.869Z,2.05
2023-03-15T08:43:28.165Z,1.45
2023-03-15T08:46:01.374Z,1.63
2023-03-15T08:48:32.141Z,1.55
2023-03-15T08:51:06.157Z,1.02
2023-03-15T08:56:51.109Z,1.20
2023-03-15T08:59:30.669Z,1.50
2023-03-15T09:02:00.527Z,1.30
2023-03-15T09:04:33.535Z,1.77
2023-03-15T09:07:01.793Z,1.77
2023-03-15T09:09:46.823Z,1.60
2023-03-15T09:12:19.225Z,1.67
2023-03-15T09:17:29.165Z,2.00
2023-03-15T09:19:56.657Z,1.50
2023-03-15T09:22:38.197Z,1.90
2023-03-15T09:25:08.482Z,1.88
2023-03-15T09:27:36.494Z,3.00
2023-03-15T09:30:04.831Z,2.58
2023-03-15T09:32:36.470Z,1.98
2023-03-15T09:35:09.703Z,2.10
2023-03-15T09:37:36.870Z,2.13
2023-03-15T09:40:04.936Z,3.20
2023-03-15T09:42:40.359Z,2.67
2023-03-15T09:45:28.199Z,3.38
2023-03-15T09:48:09.036Z,3.80
2023-03-15T09:50:50.080Z,2.95
2023-03-15T09:53:51.320Z,3.08
2023-03-15T09:56:26.881Z,4.13
2023-03-15T09:58:58.664Z,3.72
2023-03-15T10:01:33.146Z,2.85
2023-03-15T10:04:08.428Z,2.25
2023-03-15T10:06:39.330Z,3.72
2023-03-15T10:09:22.078Z,4.50
2023-03-15T10:12:41.569Z,4.03
2023-03-15T10:15:33.616Z,4.18
2023-03-15T10:18:10.552Z,3.92
2023-03-15T10:20:42.857Z,3.45
2023-03-15T10:23:42.080Z,3.22
2023-03-15T10:28:55.074Z,4.38
2023-03-15T10:31:36.964Z,4.22
2023-03-15T10:34:14.416Z,3.72
2023-03-15T10:36:54.509Z,4.10
2023-03-15T10:39:23.105Z,3.63
2023-03-15T10:41:50.973Z,4.07
2023-03-15T10:44:21.658Z,2.70
2023-03-15T10:47:21.556Z,3.65
2023-03-15T10:49:50.940Z,4.00
2023-03-15T10:52:51.497Z,3.63
2023-03-15T10:55:30.203Z,2.92
2023-03-15T10:58:02.058Z,3.10
2023-03-15T11:00:37.285Z,3.20
2023-03-15T11:06:03.703Z,3.35
2023-03-15T11:08:41.908Z,1.80
2023-03-15T11:11:11.006Z,3.38
2023-03-15T11:13:40.658Z,3.13
2023-03-15T11:16:14.246Z,4.00
2023-03-15T11:18:46.203Z,3.38
2023-03-15T11:21:15.703Z,3.38
2023-03-15T11:26:33.121Z,2.97
2023-03-15T11:29:07.636Z,3.83
2023-03-15T11:31:39.334Z,3.58
2023-03-15T11:34:16.222Z,3.20
2023-03-15T11:37:05.385Z,3.97
2023-03-15T11:39:45.456Z,2.90
2023-03-15T11:42:24.015Z,3.20
2023-03-15T11:44:56.463Z,2.88
2023-03-15T11:47:34.789Z,3.47
2023-03-15T11:50:02.315Z,3.22
2023-03-15T11:52:32.322Z,2.95
2023-03-15T11:57:53.483Z,3.63
2023-03-15T12:00:35.811Z,2.70
2023-03-15T12:03:35.608Z,2.97
2023-03-15T12:06:17.989Z,2.63
2023-03-15T12:08:55.981Z,3.28
2023-03-15T12:11:45.929Z,3.03
2023-03-15T12:14:31.390Z,3.22
2023-03-15T12:17:44.136Z,3.55
2023-03-15T12:20:14.688Z,3.58
2023-03-15T12:22:53.751Z,3.40
2023-03-15T12:25:32.528Z,3.80
2023-03-15T12:28:00.345Z,3.22
2023-03-15T12:30:33.746Z,2.92
2023-03-15T12:33:02.768Z,3.25
2023-03-15T12:35:38.872Z,3.00
2023-03-15T12:40:59.147Z,2.45
2023-03-15T12:43:44.553Z,3.13
2023-03-15T12:46:39.087Z,2.78
2023-03-15T12:49:30.186Z,2.47
2023-03-15T12:52:12.114Z,3.00
2023-03-15T12:54:49.917Z,2.33
2023-03-15T13:03:22.186Z,1.80
2023-03-15T13:06:10.728Z,2.10
2023-03-15T13:08:47.370Z,2.22
2023-03-15T13:14:48.575Z,1.48
2023-03-15T13:17:46.590Z,1.83
2023-03-15T13:20:50.090Z,2.30
2023-03-15T13:23:37.378Z,2.00
2023-03-15T13:26:30.852Z,2.65
2023-03-15T13:31:37.912Z,2.45
2023-03-15T13:34:20.843Z,2.35
2023-03-15T13:36:53.862Z,2.30
2023-03-15T13:39:31.436Z,2.13
2023-03-15T13:42:00.884Z,2.10
2023-03-15T13:44:30.558Z,1.70
2023-03-15T13:46:58.789Z,1.17
2023-03-15T13:49:32.626Z,1.38
2023-03-15T13:52:03.990Z,1.15
2023-03-15T13:54:33.962Z,1.23
2023-03-15T13:57:07.387Z,1.40
2023-03-15T14:00:13.784Z,1.35
2023-03-15T14:02:46.060Z,1.63
2023-03-15T14:05:16.886Z,1.48
2023-03-15T14:07:46.811Z,1.00
2023-03-15T14:10:17.363Z,1.05
2023-03-15T14:12:45.923Z,1.25
2023-03-15T14:15:21.028Z,1.17
2023-03-15T14:18:22.129Z,1.10
2023-03-15T14:21:15.372Z,0.88
2023-03-15T14:23:45.866Z,0.90
2023-03-15T14:26:29.464Z,1.30
2023-03-15T14:29:02.489Z,0.80
2023-03-15T14:31:35.716Z,1.00
2023-03-15T14:34:17.750Z,1.08
2023-03-15T14:36:46.044Z,1.25
2023-03-15T14:42:11.519Z,0.73
2023-03-15T14:44:38.833Z,0.70
2023-03-15T14:47:16.072Z,0.50
2023-03-15T14:49:43.142Z,0.65
2023-03-15T14:52:15.724Z,1.10
2023-03-15T14:54:58.311Z,1.00
2023-03-15T14:57:26.144Z,0.63
2023-03-15T14:59:53.284Z,0.60
2023-03-15T15:02:20.834Z,0.93
2023-03-15T15:04:52.456Z,1.10
2023-03-15T15:07:23.042Z,0.80
2023-03-15T15:12:19.185Z,1.10
2023-03-15T15:14:46.264Z,1.02
2023-03-15T15:17:13.595Z,1.15
2023-03-15T15:19:40.618Z,0.75
2023-03-15T15:22:11.143Z,0.90
2023-03-15T15:24:38.198Z,1.40
2023-03-15T15:27:05.641Z,1.40
2023-03-15T15:29:37.531Z,1.10
2023-03-15T15:32:05.630Z,1.27
2023-03-15T15:34:35.677Z,1.10
2023-03-15T15:37:05.611Z,1.58
2023-03-15T15:39:34.881Z,1.45
2023-03-15T15:42:02.480Z,1.23
2023-03-15T15:44:30.993Z,1.50
2023-03-15T15:47:01.253Z,1.30
2023-03-15T15:49:28.471Z,1.40
2023-03-15T15:51:58.276Z,1.30
2023-03-15T15:54:27.820Z,1.50
2023-03-15T15:57:00.742Z,1.60
2023-03-15T15:59:29.846Z,2.10
2023-03-15T16:02:01.937Z,1.50
2023-03-15T16:04:30.379Z,1.40
2023-03-15T16:07:02.860Z,1.30
2023-03-15T16:09:31.945Z,2.10
2023-03-15T16:11:59.989Z,1.13
2023-03-15T16:14:27.270Z,2.17
2023-03-15T16:16:56.901Z,2.97
2023-03-15T16:19:24.198Z,3.58
2023-03-15T16:21:54.983Z,3.50
2023-03-15T16:24:26.749Z,4.00
2023-03-15T16:27:01.114Z,3.80
2023-03-15T16:29:36.954Z,3.38
2023-03-15T16:32:15.885Z,3.55
2023-03-15T16:34:46.279Z,3.60
2023-03-15T16:38:22.296Z,3.63
2023-03-15T16:40:50.092Z,3.88
2023-03-15T16:43:18.167Z,4.13
2023-03-15T16:45:46.621Z,3.72
2023-03-15T16:48:14.980Z,3.50
2023-03-15T16:50:44.752Z,4.78
2023-03-15T16:53:14.258Z,3.60
2023-03-15T16:55:41.360Z,3.75
2023-03-15T16:58:17.443Z,3.78
2023-03-15T17:00:47.739Z,4.60
2023-03-15T17:03:19.992Z,3.45
2023-03-15T17:05:49.726Z,3.00
2023-03-15T17:08:21.387Z,3.90
2023-03-15T17:10:49.400Z,2.80
2023-03-15T17:13:25.387Z,2.50
2023-03-15T17:15:52.485Z,3.05
2023-03-15T17:18:22.186Z,3.30
2023-03-15T17:20:51.614Z,3.05
2023-03-15T17:23:21.567Z,2.75
2023-03-15T17:25:49.346Z,3.72
2023-03-15T17:28:17.088Z,3.08
2023-03-15T17:30:45.325Z,2.72
2023-03-15T17:33:13.042Z,3.80
2023-03-15T17:35:43.977Z,3.33
2023-03-15T17:38:25.050Z,3.83
2023-03-15T17:40:53.697Z,4.45
2023-03-15T17:43:21.440Z,4.47
2023-03-15T17:45:48.712Z,5.75
2023-03-15T17:48:16.523Z,6.45
2023-03-15T17:50:44.549Z,4.55
2023-03-15T17:53:17.021Z,5.53
2023-03-15T17:55:45.012Z,5.53
2023-03-15T17:58:19.413Z,4.68
2023-03-15T18:00:48.694Z,4.80
2023-03-15T18:03:17.542Z,3.45
2023-03-15T18:05:45.270Z,2.90
2023-03-15T18:08:14.726Z,4.07
2023-03-15T18:10:42.167Z,5.53
2023-03-15T18:13:14.914Z,4.93
2023-03-15T18:15:42.065Z,5.15
2023-03-15T18:18:10.683Z,5.93
2023-03-15T18:20:38.074Z,4.40
2023-03-15T18:23:05.796Z,5.43
2023-03-15T18:25:34.492Z,6.15
2023-03-15T18:30:31.480Z,5.75
2023-03-15T18:32:59.707Z,5.95
2023-03-15T18:35:30.303Z,7.05
2023-03-15T18:37:58.172Z,9.13
2023-03-15T18:40:29.038Z,10.02
2023-03-15T18:42:58.032Z,10.77
2023-03-15T18:45:34.848Z,12.63
2023-03-15T18:48:04.612Z,11.75
2023-03-15T18:50:33.841Z,14.05
2023-03-15T18:53:07.663Z,11.98
2023-03-15T18:55:35.490Z,12.13
2023-03-15T18:58:04.643Z,13.43
2023-03-15T19:00:36.154Z,11.65
2023-03-15T19:03:06.927Z,11.10
2023-03-15T19:05:36.725Z,9.40
2023-03-15T19:08:10.770Z,7.90
2023-03-15T19:10:38.095Z,10.18
2023-03-15T19:13:06.159Z,9.50
2023-03-15T19:15:34.072Z,10.40
2023-03-15T19:18:02.082Z,9.27
2023-03-15T19:20:29.247Z,8.90
2023-03-15T19:22:56.958Z,7.53
2023-03-15T19:25:24.144Z,8.52
2023-03-15T19:27:51.921Z,8.18
2023-03-15T19:30:22.292Z,9.93
2023-03-15T19:32:51.160Z,9.50
2023-03-15T19:35:19.762Z,10.35
2023-03-15T19:37:48.860Z,8.93
2023-03-15T19:40:19.638Z,6.93
2023-03-15T19:42:51.375Z,7.90
2023-03-15T19:45:18.986Z,8.50
2023-03-15T19:47:47.591Z,7.03
2023-03-15T19:50:15.471Z,6.95
2023-03-15T19:52:46.341Z,8.00
2023-03-15T19:55:21.086Z,8.27
2023-03-15T19:58:09.294Z,8.77
2023-03-15T20:00:37.569Z,7.55
2023-03-15T20:03:04.756Z,9.43
2023-03-15T20:05:32.355Z,9.40
2023-03-15T20:07:59.430Z,10.50
2023-03-15T20:10:26.869Z,10.93
2023-03-15T20:12:59.127Z,9.98
2023-03-15T20:15:29.336Z,10.52
2023-03-15T20:17:59.652Z,11.48
2023-03-15T20:20:27.196Z,10.95
2023-03-15T20:22:58.428Z,11.15
2023-03-15T20:25:26.107Z,10.50
2023-03-15T20:27:53.289Z,10.15
2023-03-15T20:30:21.311Z,10.15
2023-03-15T20:32:52.557Z,10.80
2023-03-15T20:35:20.041Z,9.93
2023-03-15T20:37:47.882Z,9.77
2023-03-15T20:40:16.259Z,9.35
2023-03-15T20:42:43.931Z,9.75
2023-03-15T20:45:13.587Z,11.35
2023-03-15T20:50:14.253Z,9.77
2023-03-15T20:52:45.013Z,8.65
2023-03-15T20:55:15.338Z,10.15
2023-03-15T20:57:43.448Z,11.23
2023-03-15T21:00:18.619Z,13.02
2023-03-15T21:02:48.268Z,12.70
2023-03-15T21:05:17.118Z,13.02
2023-03-15T21:07:44.997Z,12.75
2023-03-15T21:10:16.382Z,13.60
2023-03-15T21:12:46.607Z,10.90
2023-03-15T21:15:34.139Z,11.40
2023-03-15T21:18:02.069Z,12.48
2023-03-15T21:20:31.320Z,11.88
2023-03-15T21:22:58.430Z,10.82
2023-03-15T21:25:25.854Z,10.43
2023-03-15T21:27:52.858Z,10.15
2023-03-15T21:30:20.255Z,9.57
2023-03-15T21:32:48.341Z,9.75
2023-03-15T21:35:17.286Z,9.05
2023-03-15T21:37:45.267Z,9.02
2023-03-15T21:40:15.322Z,9.63
2023-03-15T21:42:48.025Z,9.02
2023-03-15T21:45:16.743Z,9.70
2023-03-15T21:47:47.080Z,8.25
2023-03-15T21:50:15.839Z,10.25
2023-03-15T21:52:44.915Z,8.93
2023-03-15T21:55:15.751Z,12.52
2023-03-15T21:57:44.510Z,11.45
2023-03-15T22:02:44.777Z,10.02
2023-03-15T22:05:13.459Z,9.07
2023-03-15T22:07:42.236Z,10.02
2023-03-15T22:10:10.642Z,10.15
2023-03-15T22:12:39.309Z,10.80
2023-03-15T22:15:07.856Z,10.82
2023-03-15T22:17:35.751Z,9.88
2023-03-15T22:20:08.431Z,10.93
2023-03-15T22:22:35.679Z,10.95
2023-03-15T22:25:03.648Z,11.05
2023-03-15T22:27:30.699Z,11.95
2023-03-15T22:29:58.006Z,15.75
2023-03-15T22:32:25.143Z,12.02
2023-03-15T22:34:52.611Z,14.90
2023-03-15T22:37:19.694Z,14.57
2023-03-15T22:39:48.168Z,16.77
2023-03-15T22:42:15.329Z,15.23
2023-03-15T22:44:42.697Z,14.70
2023-03-15T22:47:10.092Z,15.20
2023-03-15T22:49:37.512Z,17.83
2023-03-15T22:52:04.595Z,16.73
2023-03-15T22:54:31.973Z,17.13
2023-03-15T22:56:59.065Z,17.38
2023-03-15T22:59:29.113Z,16.92
2023-03-15T23:01:57.467Z,17.10
2023-03-15T23:04:25.561Z,17.67
2023-03-15T23:06:53.072Z,18.08
2023-03-15T23:09:21.765Z,17.90
2023-03-15T23:11:49.721Z,18.73
2023-03-15T23:14:17.165Z,16.77
2023-03-15T23:16:44.467Z,15.90
2023-03-15T23:19:13.479Z,15.85
2023-03-15T23:21:40.712Z,13.75
2023-03-15T23:24:09.066Z,16.00
2023-03-15T23:26:37.401Z,12.77
2023-03-15T23:29:10.965Z,14.18
2023-03-15T23:31:39.117Z,11.77
2023-03-15T23:34:08.062Z,14.82
2023-03-15T23:36:35.681Z,13.48
2023-03-15T23:39:03.119Z,14.88
2023-03-15T23:41:30.240Z,12.65
2023-03-15T23:43:57.543Z,15.65
2023-03-15T23:46:24.807Z,14.02
2023-03-15T23:48:53.300Z,15.38
2023-03-15T23:51:22.326Z,14.15
2023-03-15T23:53:50.843Z,13.77
2023-03-15T23:56:22.104Z,9.45
2023-03-15T23:58:51.912Z,11.57
